createdAt,value
2023-02-23T00:01:57.235Z,98.15
2023-02-23T00:04:26.401Z,96.47
2023-02-23T00:06:54.561Z,93.95
2023-02-23T00:09:25.929Z,95.95
2023-02-23T00:11:56.044Z,95.05
2023-02-23T00:14:28.022Z,92.15
2023-02-23T00:17:00.113Z,97.75
2023-02-23T00:19:28.608Z,96.70
2023-02-23T00:21:58.893Z,102.63
2023-02-23T00:24:28.045Z,100.68
2023-02-23T00:26:56.426Z,96.90
2023-02-23T00:29:25.772Z,100.03
2023-02-23T00:31:56.100Z,97.43
2023-02-23T00:34:25.770Z,98.45
2023-02-23T00:36:55.554Z,100.18
2023-02-23T00:39:25.614Z,95.40
2023-02-23T00:41:54.948Z,91.63
2023-02-23T00:44:24.849Z,95.07
2023-02-23T00:46:53.686Z,93.43
2023-02-23T00:49:23.216Z,95.35
2023-02-23T00:51:53.213Z,98.30
2023-02-23T00:54:23.046Z,92.90
2023-02-23T00:56:51.234Z,90.88
2023-02-23T00:59:20.366Z,90.25
2023-02-23T01:01:48.594Z,91.15
2023-02-23T01:04:17.478Z,91.38
2023-02-23T01:06:46.414Z,87.88
2023-02-23T01:09:22.070Z,92.70
2023-02-23T01:11:50.284Z,92.72
2023-02-23T01:14:18.334Z,94.97
2023-02-23T01:16:46.362Z,93.63
2023-02-23T01:19:14.418Z,94.57
2023-02-23T01:21:44.064Z,96.32
2023-02-23T01:24:13.357Z,93.90
2023-02-23T01:26:45.049Z,95.35
2023-02-23T01:29:15.636Z,98.38
2023-02-23T01:31:46.034Z,101.13
2023-02-23T01:34:15.711Z,99.55
2023-02-23T01:36:45.451Z,95.40
2023-02-23T01:39:15.142Z,97.28
2023-02-23T01:41:44.811Z,98.50
2023-02-23T01:44:47.941Z,102.10
2023-02-23T01:47:17.246Z,106.55
2023-02-23T01:49:45.664Z,106.35
2023-02-23T01:52:16.593Z,106.15
2023-02-23T01:54:50.648Z,107.97
2023-02-23T01:57:24.868Z,111.88
2023-02-23T01:59:53.771Z,111.18
2023-02-23T02:02:32.838Z,111.38
2023-02-23T02:05:01.881Z,109.28
2023-02-23T02:07:35.292Z,113.07
2023-02-23T02:10:39.358Z,107.90
2023-02-23T02:13:14.190Z,107.95
2023-02-23T02:16:02.422Z,108.25
2023-02-23T02:18:38.917Z,106.03
2023-02-23T02:21:31.812Z,105.22
2023-02-23T02:24:47.865Z,104.45
2023-02-23T02:27:28.190Z,105.18
2023-02-23T02:30:26.403Z,106.90
2023-02-23T02:33:26.800Z,106.20
2023-02-23T02:36:19.446Z,104.82
2023-02-23T02:38:56.696Z,105.60
2023-02-23T02:41:35.604Z,110.05
2023-02-23T02:44:12.922Z,105.32
2023-02-23T02:46:45.535Z,103.70
2023-02-23T02:49:18.949Z,104.40
2023-02-23T02:51:54.471Z,101.75
2023-02-23T02:54:30.026Z,106.70
2023-02-23T02:57:00.983Z,109.35
2023-02-23T02:59:46.984Z,108.53
2023-02-23T03:02:35.746Z,108.40
2023-02-23T03:05:21.367Z,106.43
2023-02-23T03:08:23.435Z,107.93
2023-02-23T03:11:18.039Z,105.83
2023-02-23T03:14:15.037Z,105.95
2023-02-23T03:17:07.508Z,107.43
2023-02-23T03:19:58.833Z,115.97
2023-02-23T03:22:50.800Z,106.88
2023-02-23T03:25:42.556Z,103.97
2023-02-23T03:28:33.223Z,104.35
2023-02-23T03:31:28.754Z,106.15
2023-02-23T03:34:21.492Z,111.20
2023-02-23T03:39:59.530Z,115.07
2023-02-23T03:42:51.516Z,112.60
2023-02-23T03:45:42.108Z,108.10
2023-02-23T03:48:30.777Z,103.20
2023-02-23T03:51:21.435Z,111.20
2023-02-23T03:54:11.485Z,114.47
2023-02-23T03:57:02.831Z,110.97
2023-02-23T03:59:53.775Z,112.80
2023-02-23T04:02:42.937Z,103.93
2023-02-23T04:05:33.648Z,109.53
2023-02-23T04:08:22.557Z,107.47
2023-02-23T04:11:12.776Z,102.97
2023-02-23T04:13:42.593Z,99.35
2023-02-23T04:16:10.846Z,97.22
2023-02-23T04:18:42.590Z,100.13
2023-02-23T04:21:10.673Z,94.38
2023-02-23T04:23:41.041Z,98.00
2023-02-23T04:26:09.230Z,92.63
2023-02-23T04:28:37.344Z,93.95
2023-02-23T04:31:05.643Z,90.60
2023-02-23T04:33:33.774Z,91.13
2023-02-23T04:36:03.192Z,90.85
2023-02-23T04:38:31.405Z,95.68
2023-02-23T04:40:59.467Z,100.30
2023-02-23T04:43:27.466Z,99.43
2023-02-23T04:45:55.600Z,103.75
2023-02-23T04:48:25.154Z,105.22
2023-02-23T04:50:53.989Z,105.20
2023-02-23T04:53:23.447Z,105.72
2023-02-23T04:55:51.732Z,105.68
2023-02-23T04:58:19.797Z,104.85
2023-02-23T05:00:48.001Z,102.50
2023-02-23T05:03:17.466Z,97.57
2023-02-23T05:05:46.144Z,94.75
2023-02-23T05:08:14.185Z,96.35
2023-02-23T05:10:43.591Z,97.30
2023-02-23T05:13:11.651Z,104.70
2023-02-23T05:15:39.754Z,101.22
2023-02-23T05:18:08.234Z,100.00
2023-02-23T05:20:36.374Z,102.18
2023-02-23T05:23:05.181Z,105.70
2023-02-23T05:25:33.484Z,110.68
2023-02-23T05:28:03.425Z,103.28
2023-02-23T05:30:31.503Z,106.28
2023-02-23T05:32:59.559Z,110.18
2023-02-23T05:35:27.598Z,106.28
2023-02-23T05:37:55.776Z,108.60
2023-02-23T05:40:23.882Z,110.57
2023-02-23T05:42:51.954Z,112.38
2023-02-23T05:45:21.369Z,111.28
2023-02-23T05:47:49.578Z,108.47
2023-02-23T05:50:17.723Z,105.85
2023-02-23T05:52:45.805Z,100.70
2023-02-23T05:55:14.046Z,102.55
2023-02-23T05:57:42.712Z,103.70
2023-02-23T06:00:13.469Z,105.00
2023-02-23T06:02:43.023Z,104.72
2023-02-23T06:05:12.039Z,104.38
2023-02-23T06:07:40.308Z,102.70
2023-02-23T06:10:09.327Z,107.30
2023-02-23T06:12:37.467Z,104.90
2023-02-23T06:15:06.346Z,107.97
2023-02-23T06:17:34.401Z,109.28
2023-02-23T06:20:04.825Z,99.70
2023-02-23T06:22:32.898Z,102.40
2023-02-23T06:25:02.529Z,102.43
2023-02-23T06:27:30.479Z,107.50
2023-02-23T06:29:58.486Z,113.03
2023-02-23T06:32:27.005Z,108.43
2023-02-23T06:34:55.093Z,112.15
2023-02-23T06:37:24.511Z,107.18
2023-02-23T06:39:52.523Z,109.25
2023-02-23T06:42:20.589Z,110.68
2023-02-23T06:44:48.608Z,108.20
2023-02-23T06:47:16.638Z,109.05
2023-02-23T06:49:44.703Z,109.28
2023-02-23T06:52:13.535Z,107.57
2023-02-23T06:54:43.114Z,102.32
2023-02-23T06:57:11.606Z,108.75
2023-02-23T06:59:39.647Z,109.15
2023-02-23T07:02:07.760Z,102.15
2023-02-23T07:04:35.774Z,102.72
2023-02-23T07:07:03.822Z,101.75
2023-02-23T07:09:32.249Z,97.72
2023-02-23T07:12:02.581Z,101.82
2023-02-23T07:14:30.743Z,98.88
2023-02-23T07:16:58.767Z,96.65
2023-02-23T07:19:26.832Z,98.50
2023-02-23T07:21:54.880Z,91.05
2023-02-23T07:24:23.309Z,92.07
2023-02-23T07:26:52.131Z,81.95
2023-02-23T07:29:24.039Z,88.43
2023-02-23T07:31:52.341Z,86.78
2023-02-23T07:34:20.445Z,75.38
2023-02-23T07:36:48.504Z,79.35
2023-02-23T07:39:16.556Z,75.60
2023-02-23T07:41:44.714Z,71.38
2023-02-23T07:44:13.277Z,73.95
2023-02-23T07:46:42.857Z,67.97
2023-02-23T07:49:10.889Z,68.00
2023-02-23T07:51:40.642Z,70.57
2023-02-23T07:54:08.690Z,52.83
2023-02-23T07:56:36.724Z,60.97
2023-02-23T07:59:04.914Z,51.90
2023-02-23T08:01:33.048Z,54.22
2023-02-23T08:04:02.637Z,57.50
2023-02-23T08:06:31.921Z,60.50
2023-02-23T08:09:00.687Z,60.10
2023-02-23T08:11:29.654Z,57.63
2023-02-23T08:14:00.134Z,57.22
2023-02-23T08:16:28.792Z,58.63
2023-02-23T08:18:59.426Z,50.42
2023-02-23T08:21:29.972Z,48.90
2023-02-23T08:23:58.145Z,51.88
2023-02-23T08:26:26.961Z,52.55
2023-02-23T08:28:55.564Z,53.10
2023-02-23T08:31:25.091Z,45.90
2023-02-23T08:33:54.377Z,46.13
2023-02-23T08:36:22.773Z,46.40
2023-02-23T08:38:54.357Z,46.60
2023-02-23T08:41:23.070Z,37.53
2023-02-23T08:43:51.111Z,35.58
2023-02-23T08:46:20.583Z,31.85
2023-02-23T08:48:48.637Z,31.70
2023-02-23T08:51:16.964Z,32.10
2023-02-23T08:53:45.028Z,29.35
2023-02-23T08:56:15.295Z,30.92
2023-02-23T08:58:44.134Z,30.77
2023-02-23T09:01:19.424Z,32.20
2023-02-23T09:03:47.656Z,28.65
2023-02-23T09:06:18.408Z,31.02
2023-02-23T09:08:47.026Z,30.92
2023-02-23T09:11:16.461Z,28.17
2023-02-23T09:13:45.114Z,25.92
2023-02-23T09:16:13.295Z,25.65
2023-02-23T09:18:42.165Z,24.88
2023-02-23T09:21:18.792Z,27.98
2023-02-23T09:23:48.232Z,24.17
2023-02-23T09:26:18.748Z,20.42
2023-02-23T09:28:47.465Z,20.58
2023-02-23T09:31:20.446Z,21.80
2023-02-23T09:33:48.703Z,23.40
2023-02-23T09:36:18.591Z,21.90
2023-02-23T09:38:47.686Z,23.50
2023-02-23T09:41:57.647Z,24.10
2023-02-23T09:44:42.425Z,25.42
2023-02-23T09:47:32.604Z,23.75
2023-02-23T09:50:03.778Z,21.80
2023-02-23T09:52:40.159Z,24.48
2023-02-23T09:55:10.995Z,21.27
2023-02-23T09:57:42.954Z,22.67
2023-02-23T10:00:25.377Z,25.30
2023-02-23T10:03:17.039Z,22.25
2023-02-23T10:05:49.228Z,19.20
2023-02-23T10:08:34.564Z,19.55
2023-02-23T10:11:10.034Z,18.15
2023-02-23T10:13:54.051Z,18.02
2023-02-23T10:16:25.711Z,17.67
2023-02-23T10:19:00.438Z,19.08
2023-02-23T10:21:35.273Z,20.60
2023-02-23T10:24:07.234Z,22.30
2023-02-23T10:26:44.049Z,20.73
2023-02-23T10:29:23.647Z,18.65
2023-02-23T10:31:58.001Z,19.75
2023-02-23T10:34:29.030Z,19.42
2023-02-23T10:37:01.718Z,18.60
2023-02-23T10:39:31.435Z,19.48
2023-02-23T10:42:01.535Z,19.15
2023-02-23T10:44:31.275Z,21.42
2023-02-23T10:47:02.219Z,21.67
2023-02-23T10:49:42.181Z,22.17
2023-02-23T10:52:13.740Z,22.58
2023-02-23T10:54:45.749Z,21.15
2023-02-23T10:57:21.397Z,20.50
2023-02-23T11:00:30.586Z,21.75
2023-02-23T11:02:59.688Z,20.70
2023-02-23T11:05:37.413Z,21.05
2023-02-23T11:08:26.312Z,22.58
2023-02-23T11:11:00.143Z,24.15
2023-02-23T11:13:29.577Z,20.85
2023-02-23T11:16:03.571Z,23.40
2023-02-23T11:18:32.174Z,24.40
2023-02-23T11:21:00.637Z,23.75
2023-02-23T11:23:32.761Z,25.85
2023-02-23T11:26:03.152Z,21.92
2023-02-23T11:28:34.613Z,24.45
2023-02-23T11:31:05.691Z,23.63
2023-02-23T11:33:37.416Z,26.10
2023-02-23T11:36:17.738Z,23.80
2023-02-23T11:38:46.301Z,22.42
2023-02-23T11:41:23.194Z,19.15
2023-02-23T11:43:52.711Z,22.55
2023-02-23T11:46:23.706Z,20.35
2023-02-23T11:48:55.173Z,21.52
2023-02-23T11:51:28.973Z,24.13
2023-02-23T11:53:57.606Z,22.40
2023-02-23T11:56:27.152Z,25.05
2023-02-23T11:58:58.622Z,24.77
2023-02-23T12:01:41.836Z,25.23
2023-02-23T12:04:10.858Z,24.75
2023-02-23T12:06:41.159Z,22.13
2023-02-23T12:09:19.428Z,22.35
2023-02-23T12:11:52.193Z,23.33
2023-02-23T12:14:27.977Z,24.17
2023-02-23T12:17:05.163Z,25.35
2023-02-23T12:19:38.036Z,25.70
2023-02-23T12:22:12.253Z,25.05
2023-02-23T12:24:45.674Z,26.70
2023-02-23T12:27:17.313Z,25.38
2023-02-23T12:30:03.454Z,25.17
2023-02-23T12:32:47.839Z,25.25
2023-02-23T12:35:20.373Z,23.90
2023-02-23T12:40:23.946Z,24.67
2023-02-23T12:43:00.041Z,24.10
2023-02-23T12:45:36.369Z,23.65
2023-02-23T12:48:16.195Z,26.23
2023-02-23T12:50:51.311Z,26.42
2023-02-23T12:53:23.469Z,24.70
2023-02-23T12:56:04.536Z,26.02
2023-02-23T12:58:41.953Z,27.98
2023-02-23T13:01:14.815Z,25.83
2023-02-23T13:04:24.152Z,22.67
2023-02-23T13:06:58.745Z,22.23
2023-02-23T13:09:40.362Z,21.65
2023-02-23T13:12:24.084Z,22.02
2023-02-23T13:15:01.311Z,22.60
2023-02-23T13:17:37.358Z,22.40
2023-02-23T13:20:15.734Z,21.58
2023-02-23T13:22:48.211Z,17.77
2023-02-23T13:25:27.216Z,16.15
2023-02-23T13:27:59.776Z,17.52
2023-02-23T13:30:32.418Z,17.92
2023-02-23T13:33:03.496Z,17.65
2023-02-23T13:35:39.113Z,19.65
2023-02-23T13:38:15.584Z,18.55
2023-02-23T13:40:49.722Z,17.63
2023-02-23T13:43:24.530Z,18.73
2023-02-23T13:46:01.665Z,20.35
2023-02-23T13:48:55.208Z,20.02
2023-02-23T13:51:33.786Z,20.23
2023-02-23T13:54:06.150Z,19.27
2023-02-23T13:59:09.633Z,19.20
2023-02-23T14:01:40.234Z,17.55
2023-02-23T14:04:15.642Z,18.88
2023-02-23T14:06:56.717Z,18.02
2023-02-23T14:09:31.125Z,17.65
2023-02-23T14:12:06.075Z,18.00
2023-02-23T14:14:44.449Z,16.27
2023-02-23T14:17:56.281Z,16.30
2023-02-23T14:20:50.623Z,14.65
2023-02-23T14:23:34.105Z,13.05
2023-02-23T14:26:16.475Z,13.73
2023-02-23T14:28:47.713Z,14.63
2023-02-23T14:31:22.626Z,13.27
2023-02-23T14:33:57.846Z,13.15
2023-02-23T14:36:44.502Z,12.73
2023-02-23T14:39:24.416Z,12.48
2023-02-23T14:41:56.028Z,13.40
2023-02-23T14:44:31.061Z,14.43
2023-02-23T14:47:04.896Z,14.38
2023-02-23T14:49:36.945Z,12.40
2023-02-23T14:52:10.670Z,12.07
2023-02-23T14:54:41.395Z,11.18
2023-02-23T14:57:19.313Z,11.27
2023-02-23T14:59:53.099Z,10.70
2023-02-23T15:02:24.135Z,8.75
2023-02-23T15:04:52.652Z,8.98
2023-02-23T15:07:27.977Z,7.43
2023-02-23T15:10:00.069Z,7.72
2023-02-23T15:12:30.674Z,8.07
2023-02-23T15:15:02.112Z,9.32
2023-02-23T15:17:33.398Z,8.23
2023-02-23T15:20:15.938Z,8.27
2023-02-23T15:22:47.993Z,7.25
2023-02-23T15:25:20.436Z,7.43
2023-02-23T15:27:49.410Z,8.45
2023-02-23T15:30:27.746Z,10.65
2023-02-23T15:33:03.921Z,10.90
2023-02-23T15:35:37.901Z,11.98
2023-02-23T15:38:17.948Z,11.07
2023-02-23T15:40:58.734Z,11.52
2023-02-23T15:43:29.491Z,11.20
2023-02-23T15:46:03.522Z,11.70
2023-02-23T15:48:42.679Z,10.52
2023-02-23T15:51:26.154Z,11.65
2023-02-23T15:53:55.367Z,10.10
2023-02-23T15:56:28.264Z,11.52
2023-02-23T15:58:59.157Z,10.75
2023-02-23T16:01:30.364Z,11.13
2023-02-23T16:04:02.487Z,11.30
2023-02-23T16:06:35.191Z,11.52
2023-02-23T16:09:19.911Z,10.40
2023-02-23T16:11:56.276Z,11.13
2023-02-23T16:14:25.566Z,10.68
2023-02-23T16:17:09.891Z,10.68
2023-02-23T16:19:41.292Z,10.95
2023-02-23T16:22:21.447Z,11.48
2023-02-23T16:24:57.782Z,11.15
2023-02-23T16:27:29.309Z,11.48
2023-02-23T16:30:01.280Z,11.50
2023-02-23T16:32:38.737Z,12.23
2023-02-23T16:35:16.005Z,11.73
2023-02-23T16:37:59.995Z,11.38
2023-02-23T16:40:28.254Z,10.65
2023-02-23T16:42:59.521Z,12.52
2023-02-23T16:45:29.670Z,12.97
2023-02-23T16:48:02.158Z,11.50
2023-02-23T16:52:58.667Z,11.52
2023-02-23T16:55:28.310Z,12.55
2023-02-23T16:58:00.572Z,15.68
2023-02-23T17:00:31.157Z,16.55
2023-02-23T17:03:00.659Z,16.63
2023-02-23T17:05:30.164Z,20.33
2023-02-23T17:07:59.185Z,20.92
2023-02-23T17:10:31.111Z,20.58
2023-02-23T17:13:02.603Z,20.80
2023-02-23T17:15:33.509Z,18.50
2023-02-23T17:18:01.494Z,16.05
2023-02-23T17:20:29.897Z,13.23
2023-02-23T17:22:59.894Z,10.02
2023-02-23T17:25:28.558Z,11.38
2023-02-23T17:27:57.862Z,10.93
2023-02-23T17:30:28.460Z,11.48
2023-02-23T17:32:58.675Z,9.50
2023-02-23T17:35:26.901Z,9.52
2023-02-23T17:37:55.570Z,9.55
2023-02-23T17:40:28.859Z,9.25
2023-02-23T17:42:58.166Z,8.77
2023-02-23T17:45:28.288Z,7.97
2023-02-23T17:47:57.078Z,9.63
2023-02-23T17:50:27.046Z,8.73
2023-02-23T17:52:55.421Z,8.60
2023-02-23T17:55:23.643Z,7.53
2023-02-23T17:57:51.799Z,7.50
2023-02-23T18:00:20.821Z,6.68
2023-02-23T18:02:50.269Z,7.30
2023-02-23T18:05:18.550Z,6.15
2023-02-23T18:07:48.433Z,6.60
2023-02-23T18:10:17.513Z,6.10
2023-02-23T18:12:45.917Z,6.97
2023-02-23T18:15:14.222Z,5.18
2023-02-23T18:17:42.477Z,5.20
2023-02-23T18:20:15.247Z,8.05
2023-02-23T18:22:44.079Z,6.18
2023-02-23T18:25:21.541Z,5.32
2023-02-23T18:27:54.149Z,3.97
2023-02-23T18:30:23.491Z,4.45
2023-02-23T18:32:52.661Z,5.80
2023-02-23T18:35:22.304Z,4.80
2023-02-23T18:37:50.853Z,4.22
2023-02-23T18:40:24.000Z,5.47
2023-02-23T18:42:52.139Z,5.72
2023-02-23T18:45:20.618Z,6.30
2023-02-23T18:47:48.934Z,4.10
2023-02-23T18:50:19.496Z,4.55
2023-02-23T18:52:51.028Z,6.13
2023-02-23T18:55:20.136Z,4.80
2023-02-23T18:57:48.752Z,4.75
2023-02-23T19:00:19.050Z,4.40
2023-02-23T19:02:47.837Z,5.45
2023-02-23T19:05:20.742Z,4.82
2023-02-23T19:07:51.150Z,4.75
2023-02-23T19:10:19.461Z,4.75
2023-02-23T19:12:47.572Z,3.83
2023-02-23T19:15:15.766Z,4.65
2023-02-23T19:17:45.269Z,4.40
2023-02-23T19:20:14.881Z,3.90
2023-02-23T19:22:43.280Z,4.30
2023-02-23T19:25:14.814Z,4.75
2023-02-23T19:27:44.019Z,4.45
2023-02-23T19:30:14.702Z,4.88
2023-02-23T19:32:43.339Z,4.03
2023-02-23T19:35:15.201Z,4.47
2023-02-23T19:37:48.714Z,4.50
2023-02-23T19:40:20.808Z,4.32
2023-02-23T19:42:49.544Z,4.15
2023-02-23T19:45:18.946Z,4.30
2023-02-23T19:47:47.273Z,3.92
2023-02-23T19:50:17.419Z,4.22
2023-02-23T19:52:46.241Z,4.55
2023-02-23T19:55:20.318Z,4.15
2023-02-23T19:57:48.833Z,5.15
2023-02-23T20:00:17.766Z,5.30
2023-02-23T20:02:47.713Z,4.90
2023-02-23T20:05:17.773Z,4.63
2023-02-23T20:07:45.922Z,4.13
2023-02-23T20:10:16.337Z,4.38
2023-02-23T20:12:45.942Z,3.63
2023-02-23T20:15:15.424Z,4.80
2023-02-23T20:17:43.742Z,4.65
2023-02-23T20:20:13.321Z,4.45
2023-02-23T20:22:43.557Z,4.68
2023-02-23T20:25:15.582Z,4.78
2023-02-23T20:27:45.703Z,4.93
2023-02-23T20:30:15.026Z,4.30
2023-02-23T20:32:43.777Z,4.68
2023-02-23T20:35:14.166Z,5.05
2023-02-23T20:37:42.725Z,4.40
2023-02-23T20:40:18.346Z,4.78
2023-02-23T20:42:49.447Z,5.35
2023-02-23T20:45:20.682Z,5.45
2023-02-23T20:47:52.029Z,4.70
2023-02-23T20:50:21.690Z,5.10
2023-02-23T20:52:50.583Z,5.55
2023-02-23T20:55:20.146Z,5.68
2023-02-23T20:57:49.944Z,4.95
2023-02-23T21:00:22.686Z,5.63
2023-02-23T21:02:55.329Z,5.50
2023-02-23T21:05:25.293Z,5.25
2023-02-23T21:07:53.550Z,5.93
2023-02-23T21:10:21.853Z,5.65
2023-02-23T21:12:52.768Z,5.07
2023-02-23T21:15:20.909Z,5.93
2023-02-23T21:17:50.550Z,6.72
2023-02-23T21:20:20.918Z,5.93
2023-02-23T21:22:50.224Z,6.07
2023-02-23T21:25:21.066Z,5.57
2023-02-23T21:27:51.517Z,5.72
2023-02-23T21:30:22.503Z,5.57
2023-02-23T21:32:53.584Z,5.53
2023-02-23T21:35:22.502Z,5.30
2023-02-23T21:37:52.857Z,4.90
2023-02-23T21:40:23.369Z,4.75
2023-02-23T21:42:53.421Z,5.68
2023-02-23T21:45:21.749Z,5.20
2023-02-23T21:47:50.487Z,5.30
2023-02-23T21:50:20.528Z,5.47
2023-02-23T21:52:53.183Z,5.10
2023-02-23T21:55:22.271Z,4.80
2023-02-23T21:57:52.855Z,4.70
2023-02-23T22:00:22.861Z,5.35
2023-02-23T22:02:51.903Z,5.38
2023-02-23T22:05:20.963Z,5.03
2023-02-23T22:07:50.128Z,5.05
2023-02-23T22:10:19.590Z,5.40
2023-02-23T22:12:50.278Z,5.63
2023-02-23T22:15:20.210Z,5.25
2023-02-23T22:17:48.528Z,6.00
2023-02-23T22:20:20.181Z,6.20
2023-02-23T22:22:50.616Z,6.57
2023-02-23T22:25:21.023Z,6.55
2023-02-23T22:27:49.568Z,5.95
2023-02-23T22:30:22.782Z,5.82
2023-02-23T22:32:51.340Z,6.07
2023-02-23T22:35:19.999Z,5.88
2023-02-23T22:37:48.819Z,6.00
2023-02-23T22:40:17.300Z,6.40
2023-02-23T22:42:49.111Z,6.90
2023-02-23T22:45:18.060Z,6.88
2023-02-23T22:47:47.980Z,6.38
2023-02-23T22:50:19.333Z,7.45
2023-02-23T22:52:47.978Z,7.87
2023-02-23T22:55:16.332Z,7.13
2023-02-23T22:57:46.036Z,7.25
2023-02-23T23:00:17.642Z,7.88
2023-02-23T23:02:47.254Z,7.78
2023-02-23T23:05:15.992Z,7.60
2023-02-23T23:07:46.670Z,7.03
2023-02-23T23:10:15.704Z,6.55
2023-02-23T23:12:43.942Z,7.57
2023-02-23T23:15:17.550Z,7.68
2023-02-23T23:17:49.418Z,7.28
2023-02-23T23:20:22.852Z,9.40
2023-02-23T23:22:51.128Z,8.90
2023-02-23T23:25:23.141Z,8.50
2023-02-23T23:27:53.685Z,8.85
2023-02-23T23:30:26.075Z,10.52
2023-02-23T23:32:56.585Z,10.88
2023-02-23T23:35:26.154Z,10.43
2023-02-23T23:37:54.692Z,10.73
2023-02-23T23:40:24.903Z,10.13
2023-02-23T23:42:53.388Z,11.50
2023-02-23T23:45:25.924Z,11.55
2023-02-23T23:47:55.886Z,10.48
2023-02-23T23:50:27.465Z,10.38
2023-02-23T23:52:57.111Z,10.80
2023-02-23T23:55:31.385Z,10.02
2023-02-23T23:58:00.759Z,9.95
